sensor_id;sensor_type;location;lat;lon;timestamp;P1;durP1;ratioP1;P2;durP2;ratioP2
55330;SDS011;58851;42.984;20.336;2022-10-31T00:03:51;62.78;;;34.83;;
55330;SDS011;58851;42.984;20.336;2022-10-31T00:06:18;61.55;;;39.75;;
55330;SDS011;58851;42.984;20.336;2022-10-31T00:08:45;71.45;;;45.60;;
55330;SDS011;58851;42.984;20.336;2022-10-31T00:11:11;75.78;;;44.38;;
55330;SDS011;58851;42.984;20.336;2022-10-31T00:13:37;74.50;;;41.90;;
55330;SDS011;58851;42.984;20.336;2022-10-31T00:16:03;76.93;;;46.22;;
55330;SDS011;58851;42.984;20.336;2022-10-31T00:18:29;76.20;;;42.10;;
55330;SDS011;58851;42.984;20.336;2022-10-31T00:21:01;69.72;;;39.20;;
55330;SDS011;58851;42.984;20.336;2022-10-31T00:23:28;54.90;;;32.25;;
55330;SDS011;58851;42.984;20.336;2022-10-31T00:25:59;52.30;;;27.90;;
55330;SDS011;58851;42.984;20.336;2022-10-31T00:28:26;41.00;;;22.63;;
55330;SDS011;58851;42.984;20.336;2022-10-31T00:30:52;39.40;;;24.60;;
55330;SDS011;58851;42.984;20.336;2022-10-31T00:33:18;45.08;;;24.95;;
55330;SDS011;58851;42.984;20.336;2022-10-31T00:35:49;33.53;;;22.52;;
55330;SDS011;58851;42.984;20.336;2022-10-31T00:38:15;48.28;;;28.80;;
55330;SDS011;58851;42.984;20.336;2022-10-31T00:40:41;64.13;;;35.42;;
55330;SDS011;58851;42.984;20.336;2022-10-31T00:43:07;58.25;;;31.10;;
55330;SDS011;58851;42.984;20.336;2022-10-31T00:45:33;54.17;;;30.60;;
55330;SDS011;58851;42.984;20.336;2022-10-31T00:47:59;57.45;;;36.20;;
55330;SDS011;58851;42.984;20.336;2022-10-31T00:50:25;62.30;;;36.97;;
55330;SDS011;58851;42.984;20.336;2022-10-31T00:52:50;73.75;;;41.78;;
55330;SDS011;58851;42.984;20.336;2022-10-31T00:55:16;65.40;;;40.72;;
55330;SDS011;58851;42.984;20.336;2022-10-31T00:57:42;70.60;;;41.58;;
55330;SDS011;58851;42.984;20.336;2022-10-31T01:00:10;54.50;;;34.83;;
55330;SDS011;58851;42.984;20.336;2022-10-31T01:02:36;58.47;;;35.50;;
55330;SDS011;58851;42.984;20.336;2022-10-31T01:05:02;69.35;;;36.75;;
55330;SDS011;58851;42.984;20.336;2022-10-31T01:07:28;65.32;;;40.75;;
55330;SDS011;58851;42.984;20.336;2022-10-31T01:09:54;60.78;;;37.05;;
55330;SDS011;58851;42.984;20.336;2022-10-31T01:12:20;60.83;;;37.95;;
55330;SDS011;58851;42.984;20.336;2022-10-31T01:14:45;59.05;;;36.05;;
55330;SDS011;58851;42.984;20.336;2022-10-31T01:17:12;175.93;;;93.18;;
55330;SDS011;58851;42.984;20.336;2022-10-31T01:19:38;332.60;;;163.20;;
55330;SDS011;58851;42.984;20.336;2022-10-31T01:22:04;409.83;;;206.27;;
55330;SDS011;58851;42.984;20.336;2022-10-31T01:24:30;374.90;;;189.32;;
55330;SDS011;58851;42.984;20.336;2022-10-31T01:26:55;416.70;;;210.55;;
55330;SDS011;58851;42.984;20.336;2022-10-31T01:29:21;319.20;;;160.65;;
55330;SDS011;58851;42.984;20.336;2022-10-31T01:31:47;242.13;;;127.88;;
55330;SDS011;58851;42.984;20.336;2022-10-31T01:34:14;204.35;;;109.80;;
55330;SDS011;58851;42.984;20.336;2022-10-31T01:36:41;213.38;;;113.88;;
55330;SDS011;58851;42.984;20.336;2022-10-31T01:39:10;184.35;;;102.28;;
55330;SDS011;58851;42.984;20.336;2022-10-31T01:41:42;205.18;;;110.53;;
55330;SDS011;58851;42.984;20.336;2022-10-31T01:46:40;112.88;;;59.10;;
55330;SDS011;58851;42.984;20.336;2022-10-31T01:49:36;45.63;;;27.10;;
55330;SDS011;58851;42.984;20.336;2022-10-31T01:52:09;44.58;;;24.90;;
55330;SDS011;58851;42.984;20.336;2022-10-31T01:54:45;47.30;;;28.60;;
55330;SDS011;58851;42.984;20.336;2022-10-31T01:57:15;50.17;;;31.00;;
55330;SDS011;58851;42.984;20.336;2022-10-31T01:59:44;54.03;;;31.10;;
55330;SDS011;58851;42.984;20.336;2022-10-31T02:02:15;52.88;;;33.38;;
55330;SDS011;58851;42.984;20.336;2022-10-31T02:04:43;53.78;;;33.35;;
55330;SDS011;58851;42.984;20.336;2022-10-31T02:07:14;53.75;;;31.25;;
55330;SDS011;58851;42.984;20.336;2022-10-31T02:09:46;83.68;;;54.72;;
55330;SDS011;58851;42.984;20.336;2022-10-31T02:12:14;119.57;;;75.03;;
55330;SDS011;58851;42.984;20.336;2022-10-31T02:14:41;107.70;;;70.53;;
55330;SDS011;58851;42.984;20.336;2022-10-31T02:17:07;97.47;;;62.17;;
55330;SDS011;58851;42.984;20.336;2022-10-31T02:22:35;69.95;;;42.55;;
55330;SDS011;58851;42.984;20.336;2022-10-31T02:33:53;40.60;;;27.00;;
55330;SDS011;58851;42.984;20.336;2022-10-31T02:42:14;70.13;;;41.08;;
55330;SDS011;58851;42.984;20.336;2022-10-31T02:47:45;44.08;;;25.25;;
55330;SDS011;58851;42.984;20.336;2022-10-31T02:50:17;42.05;;;24.55;;
55330;SDS011;58851;42.984;20.336;2022-10-31T02:53:04;44.08;;;24.85;;
55330;SDS011;58851;42.984;20.336;2022-10-31T02:58:06;44.50;;;25.52;;
55330;SDS011;58851;42.984;20.336;2022-10-31T03:00:43;51.90;;;33.60;;
55330;SDS011;58851;42.984;20.336;2022-10-31T03:11:19;35.05;;;23.88;;
55330;SDS011;58851;42.984;20.336;2022-10-31T03:13:50;44.85;;;27.17;;
55330;SDS011;58851;42.984;20.336;2022-10-31T03:18:58;40.75;;;25.48;;
55330;SDS011;58851;42.984;20.336;2022-10-31T03:24:04;36.40;;;23.83;;
55330;SDS011;58851;42.984;20.336;2022-10-31T03:26:31;44.53;;;25.08;;
55330;SDS011;58851;42.984;20.336;2022-10-31T03:29:01;38.42;;;25.83;;
55330;SDS011;58851;42.984;20.336;2022-10-31T03:31:32;38.83;;;24.35;;
55330;SDS011;58851;42.984;20.336;2022-10-31T03:34:04;47.85;;;31.10;;
55330;SDS011;58851;42.984;20.336;2022-10-31T03:36:33;34.97;;;21.92;;
55330;SDS011;58851;42.984;20.336;2022-10-31T03:39:03;34.10;;;22.42;;
55330;SDS011;58851;42.984;20.336;2022-10-31T03:41:31;38.08;;;21.85;;
55330;SDS011;58851;42.984;20.336;2022-10-31T03:44:06;34.05;;;22.10;;
55330;SDS011;58851;42.984;20.336;2022-10-31T03:46:52;40.17;;;24.00;;
55330;SDS011;58851;42.984;20.336;2022-10-31T03:49:18;40.75;;;23.92;;
55330;SDS011;58851;42.984;20.336;2022-10-31T03:54:40;38.67;;;27.73;;
55330;SDS011;58851;42.984;20.336;2022-10-31T03:57:26;34.47;;;24.83;;
55330;SDS011;58851;42.984;20.336;2022-10-31T04:00:13;31.67;;;19.88;;
55330;SDS011;58851;42.984;20.336;2022-10-31T04:02:42;29.85;;;19.08;;
55330;SDS011;58851;42.984;20.336;2022-10-31T04:05:30;35.30;;;20.40;;
55330;SDS011;58851;42.984;20.336;2022-10-31T04:07:57;30.58;;;21.58;;
55330;SDS011;58851;42.984;20.336;2022-10-31T04:10:25;34.60;;;22.20;;
55330;SDS011;58851;42.984;20.336;2022-10-31T04:12:54;36.13;;;22.75;;
55330;SDS011;58851;42.984;20.336;2022-10-31T04:15:25;34.25;;;21.73;;
55330;SDS011;58851;42.984;20.336;2022-10-31T04:17:53;33.88;;;21.98;;
55330;SDS011;58851;42.984;20.336;2022-10-31T04:20:34;30.70;;;19.95;;
55330;SDS011;58851;42.984;20.336;2022-10-31T04:23:05;26.90;;;18.67;;
55330;SDS011;58851;42.984;20.336;2022-10-31T04:25:43;30.27;;;19.70;;
55330;SDS011;58851;42.984;20.336;2022-10-31T04:28:09;36.33;;;24.52;;
55330;SDS011;58851;42.984;20.336;2022-10-31T04:30:35;41.92;;;22.75;;
55330;SDS011;58851;42.984;20.336;2022-10-31T04:33:00;37.15;;;19.92;;
55330;SDS011;58851;42.984;20.336;2022-10-31T04:35:26;33.35;;;19.83;;
55330;SDS011;58851;42.984;20.336;2022-10-31T04:37:52;35.60;;;21.83;;
55330;SDS011;58851;42.984;20.336;2022-10-31T04:40:18;31.40;;;22.55;;
55330;SDS011;58851;42.984;20.336;2022-10-31T04:42:43;28.90;;;20.70;;
55330;SDS011;58851;42.984;20.336;2022-10-31T04:45:09;98.03;;;49.92;;
55330;SDS011;58851;42.984;20.336;2022-10-31T04:47:35;92.40;;;46.70;;
55330;SDS011;58851;42.984;20.336;2022-10-31T04:50:01;135.43;;;67.03;;
55330;SDS011;58851;42.984;20.336;2022-10-31T04:52:28;154.10;;;73.57;;
55330;SDS011;58851;42.984;20.336;2022-10-31T04:54:53;101.43;;;54.63;;
55330;SDS011;58851;42.984;20.336;2022-10-31T04:57:19;72.05;;;40.35;;
55330;SDS011;58851;42.984;20.336;2022-10-31T04:59:45;71.47;;;43.38;;
55330;SDS011;58851;42.984;20.336;2022-10-31T05:02:11;47.95;;;27.92;;
55330;SDS011;58851;42.984;20.336;2022-10-31T05:04:36;58.55;;;32.83;;
55330;SDS011;58851;42.984;20.336;2022-10-31T05:07:02;48.45;;;27.05;;
55330;SDS011;58851;42.984;20.336;2022-10-31T05:09:28;135.20;;;71.93;;
55330;SDS011;58851;42.984;20.336;2022-10-31T05:11:54;273.75;;;143.50;;
55330;SDS011;58851;42.984;20.336;2022-10-31T05:14:19;222.50;;;115.47;;
55330;SDS011;58851;42.984;20.336;2022-10-31T05:16:45;183.25;;;103.15;;
55330;SDS011;58851;42.984;20.336;2022-10-31T05:19:11;185.30;;;100.43;;
55330;SDS011;58851;42.984;20.336;2022-10-31T05:21:37;179.25;;;93.20;;
55330;SDS011;58851;42.984;20.336;2022-10-31T05:24:03;131.98;;;77.82;;
55330;SDS011;58851;42.984;20.336;2022-10-31T05:26:29;102.80;;;56.92;;
55330;SDS011;58851;42.984;20.336;2022-10-31T05:28:54;74.78;;;43.05;;
55330;SDS011;58851;42.984;20.336;2022-10-31T05:31:20;81.97;;;50.70;;
55330;SDS011;58851;42.984;20.336;2022-10-31T05:33:46;72.32;;;43.17;;
55330;SDS011;58851;42.984;20.336;2022-10-31T05:36:12;86.90;;;50.25;;
55330;SDS011;58851;42.984;20.336;2022-10-31T05:38:38;80.82;;;48.47;;
55330;SDS011;58851;42.984;20.336;2022-10-31T05:41:03;79.10;;;45.80;;
55330;SDS011;58851;42.984;20.336;2022-10-31T05:43:29;80.05;;;49.35;;
55330;SDS011;58851;42.984;20.336;2022-10-31T05:45:55;58.15;;;37.15;;
55330;SDS011;58851;42.984;20.336;2022-10-31T05:48:21;48.53;;;31.08;;
55330;SDS011;58851;42.984;20.336;2022-10-31T05:50:48;35.42;;;21.83;;
55330;SDS011;58851;42.984;20.336;2022-10-31T05:53:14;36.83;;;22.25;;
55330;SDS011;58851;42.984;20.336;2022-10-31T05:55:41;36.47;;;22.65;;
55330;SDS011;58851;42.984;20.336;2022-10-31T05:58:07;36.72;;;24.45;;
55330;SDS011;58851;42.984;20.336;2022-10-31T06:00:33;36.58;;;23.73;;
55330;SDS011;58851;42.984;20.336;2022-10-31T06:03:00;41.95;;;25.60;;
55330;SDS011;58851;42.984;20.336;2022-10-31T06:05:28;65.60;;;47.47;;
55330;SDS011;58851;42.984;20.336;2022-10-31T06:07:56;78.13;;;59.50;;
55330;SDS011;58851;42.984;20.336;2022-10-31T06:10:22;51.25;;;36.33;;
55330;SDS011;58851;42.984;20.336;2022-10-31T06:12:48;76.82;;;52.28;;
55330;SDS011;58851;42.984;20.336;2022-10-31T06:15:15;99.38;;;61.42;;
55330;SDS011;58851;42.984;20.336;2022-10-31T06:17:41;71.80;;;43.05;;
55330;SDS011;58851;42.984;20.336;2022-10-31T06:20:07;57.60;;;35.92;;
55330;SDS011;58851;42.984;20.336;2022-10-31T06:22:34;61.97;;;37.55;;
55330;SDS011;58851;42.984;20.336;2022-10-31T06:24:59;68.35;;;44.70;;
55330;SDS011;58851;42.984;20.336;2022-10-31T06:27:25;82.60;;;50.95;;
55330;SDS011;58851;42.984;20.336;2022-10-31T06:29:51;96.68;;;55.60;;
55330;SDS011;58851;42.984;20.336;2022-10-31T06:32:17;108.45;;;60.13;;
55330;SDS011;58851;42.984;20.336;2022-10-31T06:34:43;99.68;;;55.45;;
55330;SDS011;58851;42.984;20.336;2022-10-31T06:37:10;74.68;;;50.58;;
55330;SDS011;58851;42.984;20.336;2022-10-31T06:39:36;92.80;;;62.10;;
55330;SDS011;58851;42.984;20.336;2022-10-31T06:42:03;106.50;;;66.28;;
55330;SDS011;58851;42.984;20.336;2022-10-31T06:44:30;113.07;;;72.75;;
55330;SDS011;58851;42.984;20.336;2022-10-31T06:46:56;96.22;;;64.45;;
55330;SDS011;58851;42.984;20.336;2022-10-31T06:49:21;93.00;;;65.20;;
55330;SDS011;58851;42.984;20.336;2022-10-31T06:51:48;92.18;;;61.35;;
55330;SDS011;58851;42.984;20.336;2022-10-31T06:54:14;96.53;;;63.95;;
55330;SDS011;58851;42.984;20.336;2022-10-31T06:56:40;111.05;;;68.53;;
55330;SDS011;58851;42.984;20.336;2022-10-31T06:59:06;97.55;;;64.38;;
55330;SDS011;58851;42.984;20.336;2022-10-31T07:01:32;96.15;;;61.97;;
55330;SDS011;58851;42.984;20.336;2022-10-31T07:03:58;86.60;;;57.15;;
55330;SDS011;58851;42.984;20.336;2022-10-31T07:06:23;79.60;;;53.17;;
55330;SDS011;58851;42.984;20.336;2022-10-31T07:08:49;86.47;;;51.85;;
55330;SDS011;58851;42.984;20.336;2022-10-31T07:11:15;77.03;;;51.63;;
55330;SDS011;58851;42.984;20.336;2022-10-31T07:13:41;75.00;;;50.38;;
55330;SDS011;58851;42.984;20.336;2022-10-31T07:16:07;78.88;;;53.83;;
55330;SDS011;58851;42.984;20.336;2022-10-31T07:18:35;74.35;;;51.45;;
55330;SDS011;58851;42.984;20.336;2022-10-31T07:21:17;72.68;;;49.53;;
55330;SDS011;58851;42.984;20.336;2022-10-31T07:23:49;72.15;;;48.15;;
55330;SDS011;58851;42.984;20.336;2022-10-31T07:26:15;66.93;;;41.42;;
55330;SDS011;58851;42.984;20.336;2022-10-31T07:28:41;60.85;;;39.78;;
55330;SDS011;58851;42.984;20.336;2022-10-31T07:31:07;66.40;;;41.63;;
55330;SDS011;58851;42.984;20.336;2022-10-31T07:33:34;53.67;;;38.75;;
55330;SDS011;58851;42.984;20.336;2022-10-31T07:35:59;56.22;;;42.72;;
55330;SDS011;58851;42.984;20.336;2022-10-31T07:38:25;54.28;;;40.10;;
55330;SDS011;58851;42.984;20.336;2022-10-31T07:40:51;60.83;;;38.30;;
55330;SDS011;58851;42.984;20.336;2022-10-31T07:43:18;62.70;;;41.83;;
55330;SDS011;58851;42.984;20.336;2022-10-31T07:45:48;54.90;;;37.30;;
55330;SDS011;58851;42.984;20.336;2022-10-31T07:48:21;77.80;;;44.85;;
55330;SDS011;58851;42.984;20.336;2022-10-31T07:50:51;59.28;;;33.38;;
55330;SDS011;58851;42.984;20.336;2022-10-31T07:53:17;42.45;;;28.58;;
55330;SDS011;58851;42.984;20.336;2022-10-31T07:55:43;47.47;;;32.55;;
55330;SDS011;58851;42.984;20.336;2022-10-31T07:58:14;53.25;;;33.17;;
55330;SDS011;58851;42.984;20.336;2022-10-31T08:00:41;84.95;;;53.03;;
55330;SDS011;58851;42.984;20.336;2022-10-31T08:03:13;50.60;;;35.60;;
55330;SDS011;58851;42.984;20.336;2022-10-31T08:05:40;49.55;;;33.92;;
55330;SDS011;58851;42.984;20.336;2022-10-31T08:08:06;56.30;;;34.83;;
55330;SDS011;58851;42.984;20.336;2022-10-31T08:10:33;54.47;;;33.40;;
55330;SDS011;58851;42.984;20.336;2022-10-31T08:13:04;58.03;;;36.05;;
55330;SDS011;58851;42.984;20.336;2022-10-31T08:15:35;51.88;;;33.67;;
55330;SDS011;58851;42.984;20.336;2022-10-31T08:18:02;54.15;;;31.58;;
55330;SDS011;58851;42.984;20.336;2022-10-31T08:20:28;58.47;;;34.97;;
55330;SDS011;58851;42.984;20.336;2022-10-31T08:22:58;40.72;;;30.38;;
55330;SDS011;58851;42.984;20.336;2022-10-31T08:25:25;43.45;;;31.95;;
55330;SDS011;58851;42.984;20.336;2022-10-31T08:27:53;55.33;;;38.20;;
55330;SDS011;58851;42.984;20.336;2022-10-31T08:30:20;50.88;;;34.78;;
55330;SDS011;58851;42.984;20.336;2022-10-31T08:32:47;46.50;;;35.92;;
55330;SDS011;58851;42.984;20.336;2022-10-31T08:35:22;38.80;;;28.58;;
55330;SDS011;58851;42.984;20.336;2022-10-31T08:37:51;52.08;;;33.40;;
55330;SDS011;58851;42.984;20.336;2022-10-31T08:40:19;43.30;;;30.02;;
55330;SDS011;58851;42.984;20.336;2022-10-31T08:42:45;51.28;;;34.55;;
55330;SDS011;58851;42.984;20.336;2022-10-31T08:45:10;38.42;;;27.55;;
55330;SDS011;58851;42.984;20.336;2022-10-31T08:47:36;39.75;;;27.50;;
55330;SDS011;58851;42.984;20.336;2022-10-31T08:50:02;41.95;;;28.95;;
55330;SDS011;58851;42.984;20.336;2022-10-31T08:52:28;41.28;;;28.33;;
55330;SDS011;58851;42.984;20.336;2022-10-31T08:54:54;38.70;;;26.42;;
55330;SDS011;58851;42.984;20.336;2022-10-31T08:57:20;34.08;;;22.38;;
55330;SDS011;58851;42.984;20.336;2022-10-31T08:59:45;34.42;;;22.60;;
55330;SDS011;58851;42.984;20.336;2022-10-31T09:02:11;33.70;;;23.80;;
55330;SDS011;58851;42.984;20.336;2022-10-31T09:04:37;37.35;;;23.88;;
55330;SDS011;58851;42.984;20.336;2022-10-31T09:07:03;30.33;;;20.80;;
55330;SDS011;58851;42.984;20.336;2022-10-31T09:09:28;35.33;;;23.48;;
55330;SDS011;58851;42.984;20.336;2022-10-31T09:11:54;33.40;;;22.98;;
55330;SDS011;58851;42.984;20.336;2022-10-31T09:14:20;29.45;;;21.83;;
55330;SDS011;58851;42.984;20.336;2022-10-31T09:16:46;42.72;;;20.73;;
55330;SDS011;58851;42.984;20.336;2022-10-31T09:19:11;44.78;;;27.05;;
55330;SDS011;58851;42.984;20.336;2022-10-31T09:21:37;71.35;;;45.33;;
55330;SDS011;58851;42.984;20.336;2022-10-31T09:24:03;49.55;;;26.27;;
55330;SDS011;58851;42.984;20.336;2022-10-31T09:26:29;27.17;;;18.52;;
55330;SDS011;58851;42.984;20.336;2022-10-31T09:28:55;25.15;;;16.40;;
55330;SDS011;58851;42.984;20.336;2022-10-31T09:31:22;22.70;;;14.10;;
55330;SDS011;58851;42.984;20.336;2022-10-31T09:33:48;28.30;;;14.20;;
55330;SDS011;58851;42.984;20.336;2022-10-31T09:36:14;28.42;;;18.08;;
55330;SDS011;58851;42.984;20.336;2022-10-31T09:38:40;25.85;;;17.10;;
55330;SDS011;58851;42.984;20.336;2022-10-31T09:48:50;25.92;;;13.95;;
55330;SDS011;58851;42.984;20.336;2022-10-31T09:51:43;23.10;;;13.23;;
55330;SDS011;58851;42.984;20.336;2022-10-31T09:54:18;22.48;;;12.63;;
55330;SDS011;58851;42.984;20.336;2022-10-31T09:56:46;20.13;;;13.18;;
55330;SDS011;58851;42.984;20.336;2022-10-31T09:59:17;25.90;;;13.48;;
55330;SDS011;58851;42.984;20.336;2022-10-31T10:01:54;19.35;;;12.25;;
55330;SDS011;58851;42.984;20.336;2022-10-31T10:07:54;25.67;;;14.02;;
55330;SDS011;58851;42.984;20.336;2022-10-31T10:09:55;20.63;;;12.95;;
55330;SDS011;58851;42.984;20.336;2022-10-31T10:18:13;24.58;;;12.38;;
55330;SDS011;58851;42.984;20.336;2022-10-31T10:26:16;32.75;;;19.55;;
55330;SDS011;58851;42.984;20.336;2022-10-31T10:28:49;28.35;;;13.55;;
55330;SDS011;58851;42.984;20.336;2022-10-31T10:31:42;26.60;;;13.38;;
55330;SDS011;58851;42.984;20.336;2022-10-31T10:36:56;23.55;;;11.00;;
55330;SDS011;58851;42.984;20.336;2022-10-31T10:42:04;22.23;;;9.95;;
55330;SDS011;58851;42.984;20.336;2022-10-31T10:44:55;17.52;;;9.75;;
55330;SDS011;58851;42.984;20.336;2022-10-31T10:47:41;18.35;;;7.82;;
55330;SDS011;58851;42.984;20.336;2022-10-31T10:50:11;15.57;;;8.15;;
55330;SDS011;58851;42.984;20.336;2022-10-31T10:52:53;15.85;;;9.55;;
55330;SDS011;58851;42.984;20.336;2022-10-31T10:56:08;15.63;;;7.50;;
55330;SDS011;58851;42.984;20.336;2022-10-31T10:58:40;14.93;;;8.20;;
55330;SDS011;58851;42.984;20.336;2022-10-31T11:01:14;17.65;;;8.68;;
55330;SDS011;58851;42.984;20.336;2022-10-31T11:03:40;11.40;;;7.53;;
55330;SDS011;58851;42.984;20.336;2022-10-31T11:06:15;8.57;;;4.93;;
55330;SDS011;58851;42.984;20.336;2022-10-31T11:08:46;16.42;;;8.23;;
55330;SDS011;58851;42.984;20.336;2022-10-31T11:13:42;9.15;;;4.45;;
55330;SDS011;58851;42.984;20.336;2022-10-31T11:16:13;10.25;;;4.65;;
55330;SDS011;58851;42.984;20.336;2022-10-31T11:18:51;10.63;;;4.68;;
55330;SDS011;58851;42.984;20.336;2022-10-31T11:21:23;10.27;;;5.50;;
55330;SDS011;58851;42.984;20.336;2022-10-31T11:26:34;10.43;;;4.93;;
55330;SDS011;58851;42.984;20.336;2022-10-31T11:29:05;9.27;;;4.90;;
55330;SDS011;58851;42.984;20.336;2022-10-31T11:31:56;16.05;;;7.40;;
55330;SDS011;58851;42.984;20.336;2022-10-31T11:34:27;15.75;;;10.27;;
55330;SDS011;58851;42.984;20.336;2022-10-31T11:37:19;30.40;;;16.17;;
55330;SDS011;58851;42.984;20.336;2022-10-31T11:39:58;13.60;;;4.95;;
55330;SDS011;58851;42.984;20.336;2022-10-31T11:42:27;11.57;;;4.10;;
55330;SDS011;58851;42.984;20.336;2022-10-31T11:45:06;16.17;;;5.38;;
55330;SDS011;58851;42.984;20.336;2022-10-31T11:47:41;10.50;;;3.30;;
55330;SDS011;58851;42.984;20.336;2022-10-31T11:50:11;9.60;;;3.25;;
55330;SDS011;58851;42.984;20.336;2022-10-31T11:52:49;9.07;;;4.65;;
55330;SDS011;58851;42.984;20.336;2022-10-31T11:55:29;13.85;;;3.72;;
55330;SDS011;58851;42.984;20.336;2022-10-31T11:58:00;23.17;;;7.10;;
55330;SDS011;58851;42.984;20.336;2022-10-31T12:00:31;19.48;;;9.32;;
55330;SDS011;58851;42.984;20.336;2022-10-31T12:05:45;13.88;;;5.13;;
55330;SDS011;58851;42.984;20.336;2022-10-31T12:08:16;12.77;;;4.45;;
55330;SDS011;58851;42.984;20.336;2022-10-31T12:10:49;8.15;;;3.53;;
55330;SDS011;58851;42.984;20.336;2022-10-31T12:13:34;9.80;;;3.85;;
55330;SDS011;58851;42.984;20.336;2022-10-31T12:16:28;15.32;;;6.90;;
55330;SDS011;58851;42.984;20.336;2022-10-31T12:21:34;12.82;;;4.25;;
55330;SDS011;58851;42.984;20.336;2022-10-31T12:27:10;9.23;;;4.95;;
55330;SDS011;58851;42.984;20.336;2022-10-31T12:32:43;13.18;;;4.65;;
55330;SDS011;58851;42.984;20.336;2022-10-31T12:46:14;11.25;;;4.13;;
55330;SDS011;58851;42.984;20.336;2022-10-31T12:59:27;16.75;;;6.95;;
55330;SDS011;58851;42.984;20.336;2022-10-31T13:02:06;16.52;;;6.47;;
55330;SDS011;58851;42.984;20.336;2022-10-31T13:05:05;22.08;;;8.00;;
55330;SDS011;58851;42.984;20.336;2022-10-31T13:07:52;10.38;;;4.18;;
55330;SDS011;58851;42.984;20.336;2022-10-31T13:12:58;12.95;;;7.90;;
55330;SDS011;58851;42.984;20.336;2022-10-31T13:15:32;12.07;;;3.88;;
55330;SDS011;58851;42.984;20.336;2022-10-31T13:18:09;13.63;;;5.22;;
55330;SDS011;58851;42.984;20.336;2022-10-31T13:20:48;16.90;;;4.05;;
55330;SDS011;58851;42.984;20.336;2022-10-31T13:23:29;10.60;;;2.97;;
55330;SDS011;58851;42.984;20.336;2022-10-31T13:25:58;11.68;;;4.63;;
55330;SDS011;58851;42.984;20.336;2022-10-31T13:28:35;25.65;;;11.40;;
55330;SDS011;58851;42.984;20.336;2022-10-31T13:31:07;10.13;;;6.68;;
55330;SDS011;58851;42.984;20.336;2022-10-31T13:44:29;12.82;;;6.70;;
55330;SDS011;58851;42.984;20.336;2022-10-31T13:46:56;15.70;;;4.68;;
55330;SDS011;58851;42.984;20.336;2022-10-31T13:57:21;8.70;;;3.60;;
55330;SDS011;58851;42.984;20.336;2022-10-31T14:00:22;14.63;;;3.78;;
55330;SDS011;58851;42.984;20.336;2022-10-31T14:02:51;12.02;;;4.75;;
55330;SDS011;58851;42.984;20.336;2022-10-31T14:05:23;11.13;;;3.97;;
55330;SDS011;58851;42.984;20.336;2022-10-31T14:07:53;7.72;;;2.83;;
55330;SDS011;58851;42.984;20.336;2022-10-31T14:10:22;10.35;;;2.60;;
55330;SDS011;58851;42.984;20.336;2022-10-31T14:15:56;10.98;;;4.40;;
55330;SDS011;58851;42.984;20.336;2022-10-31T14:21:01;11.02;;;4.55;;
55330;SDS011;58851;42.984;20.336;2022-10-31T14:23:39;10.00;;;4.03;;
55330;SDS011;58851;42.984;20.336;2022-10-31T14:26:17;10.05;;;3.55;;
55330;SDS011;58851;42.984;20.336;2022-10-31T14:28:47;13.10;;;4.97;;
55330;SDS011;58851;42.984;20.336;2022-10-31T14:37:24;18.42;;;6.50;;
55330;SDS011;58851;42.984;20.336;2022-10-31T14:51:03;22.60;;;13.68;;
55330;SDS011;58851;42.984;20.336;2022-10-31T14:53:51;20.80;;;10.10;;
55330;SDS011;58851;42.984;20.336;2022-10-31T14:56:26;20.15;;;11.48;;
55330;SDS011;58851;42.984;20.336;2022-10-31T14:59:06;27.25;;;13.05;;
55330;SDS011;58851;42.984;20.336;2022-10-31T15:01:36;27.17;;;11.32;;
55330;SDS011;58851;42.984;20.336;2022-10-31T15:04:17;34.65;;;14.40;;
55330;SDS011;58851;42.984;20.336;2022-10-31T15:06:48;30.40;;;14.05;;
55330;SDS011;58851;42.984;20.336;2022-10-31T15:09:30;35.10;;;14.90;;
55330;SDS011;58851;42.984;20.336;2022-10-31T15:12:01;46.45;;;24.42;;
55330;SDS011;58851;42.984;20.336;2022-10-31T15:14:48;86.20;;;40.90;;
55330;SDS011;58851;42.984;20.336;2022-10-31T15:17:14;67.70;;;34.45;;
55330;SDS011;58851;42.984;20.336;2022-10-31T15:19:41;56.38;;;35.28;;
55330;SDS011;58851;42.984;20.336;2022-10-31T15:22:10;48.55;;;27.75;;
55330;SDS011;58851;42.984;20.336;2022-10-31T15:24:42;49.50;;;24.60;;
55330;SDS011;58851;42.984;20.336;2022-10-31T15:27:13;46.58;;;29.77;;
55330;SDS011;58851;42.984;20.336;2022-10-31T15:29:47;48.40;;;29.27;;
55330;SDS011;58851;42.984;20.336;2022-10-31T15:32:19;48.17;;;25.38;;
55330;SDS011;58851;42.984;20.336;2022-10-31T15:34:47;37.85;;;26.67;;
55330;SDS011;58851;42.984;20.336;2022-10-31T15:37:17;59.30;;;40.28;;
55330;SDS011;58851;42.984;20.336;2022-10-31T15:39:45;98.47;;;58.88;;
55330;SDS011;58851;42.984;20.336;2022-10-31T15:42:19;108.22;;;67.50;;
55330;SDS011;58851;42.984;20.336;2022-10-31T15:47:54;88.38;;;46.80;;
55330;SDS011;58851;42.984;20.336;2022-10-31T15:50:30;84.90;;;48.10;;
55330;SDS011;58851;42.984;20.336;2022-10-31T15:53:05;91.28;;;53.63;;
55330;SDS011;58851;42.984;20.336;2022-10-31T15:55:45;128.27;;;73.90;;
55330;SDS011;58851;42.984;20.336;2022-10-31T15:58:15;129.50;;;73.85;;
55330;SDS011;58851;42.984;20.336;2022-10-31T16:00:42;168.40;;;110.55;;
55330;SDS011;58851;42.984;20.336;2022-10-31T16:05:44;152.90;;;102.10;;
55330;SDS011;58851;42.984;20.336;2022-10-31T16:13:52;145.52;;;92.35;;
55330;SDS011;58851;42.984;20.336;2022-10-31T16:16:26;125.53;;;81.90;;
55330;SDS011;58851;42.984;20.336;2022-10-31T16:18:54;135.05;;;77.90;;
55330;SDS011;58851;42.984;20.336;2022-10-31T16:21:39;138.48;;;82.30;;
55330;SDS011;58851;42.984;20.336;2022-10-31T16:26:48;160.18;;;99.00;;
55330;SDS011;58851;42.984;20.336;2022-10-31T16:29:27;110.65;;;69.63;;
55330;SDS011;58851;42.984;20.336;2022-10-31T16:31:58;122.45;;;78.78;;
55330;SDS011;58851;42.984;20.336;2022-10-31T16:34:24;122.93;;;81.03;;
55330;SDS011;58851;42.984;20.336;2022-10-31T16:36:50;179.90;;;112.22;;
55330;SDS011;58851;42.984;20.336;2022-10-31T16:39:16;147.88;;;93.25;;
55330;SDS011;58851;42.984;20.336;2022-10-31T16:41:43;133.43;;;90.03;;
55330;SDS011;58851;42.984;20.336;2022-10-31T16:44:15;234.40;;;153.05;;
55330;SDS011;58851;42.984;20.336;2022-10-31T16:46:45;122.90;;;84.30;;
55330;SDS011;58851;42.984;20.336;2022-10-31T16:49:11;137.68;;;84.80;;
55330;SDS011;58851;42.984;20.336;2022-10-31T16:51:37;140.75;;;84.00;;
55330;SDS011;58851;42.984;20.336;2022-10-31T16:54:03;138.77;;;88.30;;
55330;SDS011;58851;42.984;20.336;2022-10-31T16:56:30;188.07;;;109.55;;
55330;SDS011;58851;42.984;20.336;2022-10-31T16:58:58;173.57;;;103.88;;
55330;SDS011;58851;42.984;20.336;2022-10-31T17:01:27;179.65;;;107.32;;
55330;SDS011;58851;42.984;20.336;2022-10-31T17:03:53;164.73;;;99.40;;
55330;SDS011;58851;42.984;20.336;2022-10-31T17:06:19;179.52;;;100.82;;
55330;SDS011;58851;42.984;20.336;2022-10-31T17:08:44;175.82;;;104.47;;
55330;SDS011;58851;42.984;20.336;2022-10-31T17:11:15;182.10;;;113.40;;
55330;SDS011;58851;42.984;20.336;2022-10-31T17:13:43;175.20;;;100.90;;